sensor_id;sensor_type;location;lat;lon;timestamp;P1;durP1;ratioP1;P2;durP2;ratioP2
35644;SDS011;21764;52.042;6.830;2023-04-03T00:02:15;9.75;;;2.92;;
35644;SDS011;21764;52.042;6.830;2023-04-03T00:07:16;14.38;;;2.80;;
35644;SDS011;21764;52.042;6.830;2023-04-03T00:12:17;10.48;;;3.10;;
35644;SDS011;21764;52.042;6.830;2023-04-03T00:17:17;6.22;;;2.80;;
35644;SDS011;21764;52.042;6.830;2023-04-03T00:22:18;10.95;;;3.17;;
35644;SDS011;21764;52.042;6.830;2023-04-03T00:27:19;9.00;;;3.03;;
35644;SDS011;21764;52.042;6.830;2023-04-03T00:32:19;9.75;;;3.03;;
35644;SDS011;21764;52.042;6.830;2023-04-03T00:37:20;8.48;;;3.22;;
35644;SDS011;21764;52.042;6.830;2023-04-03T00:42:21;8.77;;;2.67;;
35644;SDS011;21764;52.042;6.830;2023-04-03T00:47:22;11.18;;;3.03;;
35644;SDS011;21764;52.042;6.830;2023-04-03T00:52:25;7.75;;;2.38;;
35644;SDS011;21764;52.042;6.830;2023-04-03T00:57:30;9.15;;;2.92;;
35644;SDS011;21764;52.042;6.830;2023-04-03T01:02:31;14.35;;;3.13;;
35644;SDS011;21764;52.042;6.830;2023-04-03T01:07:32;6.93;;;2.67;;
35644;SDS011;21764;52.042;6.830;2023-04-03T01:12:36;12.23;;;2.95;;
35644;SDS011;21764;52.042;6.830;2023-04-03T01:17:40;11.45;;;3.25;;
35644;SDS011;21764;52.042;6.830;2023-04-03T01:23:24;12.35;;;2.90;;
35644;SDS011;21764;52.042;6.830;2023-04-03T01:28:12;13.38;;;3.88;;
35644;SDS011;21764;52.042;6.830;2023-04-03T01:33:19;13.60;;;3.55;;
35644;SDS011;21764;52.042;6.830;2023-04-03T01:38:21;14.75;;;3.50;;
35644;SDS011;21764;52.042;6.830;2023-04-03T01:43:22;7.72;;;3.55;;
35644;SDS011;21764;52.042;6.830;2023-04-03T01:48:23;12.60;;;4.63;;
35644;SDS011;21764;52.042;6.830;2023-04-03T01:53:23;13.73;;;3.80;;
35644;SDS011;21764;52.042;6.830;2023-04-03T01:58:24;9.90;;;3.38;;
35644;SDS011;21764;52.042;6.830;2023-04-03T02:03:25;5.10;;;3.15;;
35644;SDS011;21764;52.042;6.830;2023-04-03T02:08:26;8.60;;;2.80;;
35644;SDS011;21764;52.042;6.830;2023-04-03T02:13:27;6.22;;;2.83;;
35644;SDS011;21764;52.042;6.830;2023-04-03T02:18:27;11.52;;;3.47;;
35644;SDS011;21764;52.042;6.830;2023-04-03T02:23:28;12.82;;;3.03;;
35644;SDS011;21764;52.042;6.830;2023-04-03T02:28:29;13.52;;;3.55;;
35644;SDS011;21764;52.042;6.830;2023-04-03T02:33:29;9.57;;;3.63;;
35644;SDS011;21764;52.042;6.830;2023-04-03T02:38:30;9.95;;;3.10;;
35644;SDS011;21764;52.042;6.830;2023-04-03T02:43:31;16.25;;;3.33;;
35644;SDS011;21764;52.042;6.830;2023-04-03T02:48:32;13.23;;;3.15;;
35644;SDS011;21764;52.042;6.830;2023-04-03T02:53:35;10.65;;;3.15;;
35644;SDS011;21764;52.042;6.830;2023-04-03T02:58:35;10.10;;;2.80;;
35644;SDS011;21764;52.042;6.830;2023-04-03T03:03:36;14.50;;;2.85;;
35644;SDS011;21764;52.042;6.830;2023-04-03T03:08:37;11.90;;;2.97;;
35644;SDS011;21764;52.042;6.830;2023-04-03T03:13:38;9.98;;;3.03;;
35644;SDS011;21764;52.042;6.830;2023-04-03T03:18:39;14.63;;;3.35;;
35644;SDS011;21764;52.042;6.830;2023-04-03T03:23:40;13.55;;;3.10;;
35644;SDS011;21764;52.042;6.830;2023-04-03T03:28:40;7.50;;;3.00;;
35644;SDS011;21764;52.042;6.830;2023-04-03T03:33:41;12.07;;;3.20;;
35644;SDS011;21764;52.042;6.830;2023-04-03T03:38:42;10.40;;;3.47;;
35644;SDS011;21764;52.042;6.830;2023-04-03T03:43:42;15.13;;;3.38;;
35644;SDS011;21764;52.042;6.830;2023-04-03T03:48:43;8.50;;;3.70;;
35644;SDS011;21764;52.042;6.830;2023-04-03T03:53:44;17.33;;;3.30;;
35644;SDS011;21764;52.042;6.830;2023-04-03T03:58:45;10.13;;;3.40;;
35644;SDS011;21764;52.042;6.830;2023-04-03T04:03:46;16.10;;;3.85;;
35644;SDS011;21764;52.042;6.830;2023-04-03T04:08:46;13.30;;;3.97;;
35644;SDS011;21764;52.042;6.830;2023-04-03T04:13:47;13.48;;;3.38;;
35644;SDS011;21764;52.042;6.830;2023-04-03T04:18:48;8.45;;;3.10;;
35644;SDS011;21764;52.042;6.830;2023-04-03T04:23:48;8.75;;;3.17;;
35644;SDS011;21764;52.042;6.830;2023-04-03T04:28:49;18.77;;;4.68;;
35644;SDS011;21764;52.042;6.830;2023-04-03T04:33:50;13.07;;;3.70;;
35644;SDS011;21764;52.042;6.830;2023-04-03T04:38:50;8.73;;;3.28;;
35644;SDS011;21764;52.042;6.830;2023-04-03T04:43:52;10.18;;;3.40;;
35644;SDS011;21764;52.042;6.830;2023-04-03T04:48:53;7.38;;;3.38;;
35644;SDS011;21764;52.042;6.830;2023-04-03T04:53:54;15.35;;;3.80;;
35644;SDS011;21764;52.042;6.830;2023-04-03T04:58:54;16.45;;;3.50;;
35644;SDS011;21764;52.042;6.830;2023-04-03T05:03:55;11.70;;;3.75;;
35644;SDS011;21764;52.042;6.830;2023-04-03T05:08:56;10.63;;;3.50;;
35644;SDS011;21764;52.042;6.830;2023-04-03T05:13:56;10.60;;;3.70;;
35644;SDS011;21764;52.042;6.830;2023-04-03T05:18:57;15.70;;;4.10;;
35644;SDS011;21764;52.042;6.830;2023-04-03T05:23:58;10.38;;;4.20;;
35644;SDS011;21764;52.042;6.830;2023-04-03T05:29:02;11.82;;;4.00;;
35644;SDS011;21764;52.042;6.830;2023-04-03T05:34:03;11.77;;;4.18;;
35644;SDS011;21764;52.042;6.830;2023-04-03T05:39:03;14.10;;;3.25;;
35644;SDS011;21764;52.042;6.830;2023-04-03T05:44:04;10.85;;;3.35;;
35644;SDS011;21764;52.042;6.830;2023-04-03T05:49:05;8.65;;;3.30;;
35644;SDS011;21764;52.042;6.830;2023-04-03T05:54:10;10.88;;;3.30;;
35644;SDS011;21764;52.042;6.830;2023-04-03T05:59:16;10.80;;;3.85;;
35644;SDS011;21764;52.042;6.830;2023-04-03T06:04:17;8.18;;;3.00;;
35644;SDS011;21764;52.042;6.830;2023-04-03T06:09:20;10.23;;;3.50;;
35644;SDS011;21764;52.042;6.830;2023-04-03T06:14:22;10.43;;;3.40;;
35644;SDS011;21764;52.042;6.830;2023-04-03T06:19:22;6.50;;;2.55;;
35644;SDS011;21764;52.042;6.830;2023-04-03T06:24:23;8.45;;;3.10;;
35644;SDS011;21764;52.042;6.830;2023-04-03T06:29:25;9.65;;;2.75;;
35644;SDS011;21764;52.042;6.830;2023-04-03T06:34:25;8.70;;;2.88;;
35644;SDS011;21764;52.042;6.830;2023-04-03T06:39:26;9.43;;;3.03;;
35644;SDS011;21764;52.042;6.830;2023-04-03T06:44:27;7.55;;;2.72;;
35644;SDS011;21764;52.042;6.830;2023-04-03T06:49:28;6.03;;;2.80;;
35644;SDS011;21764;52.042;6.830;2023-04-03T06:54:29;6.85;;;2.70;;
35644;SDS011;21764;52.042;6.830;2023-04-03T06:59:29;10.30;;;3.75;;
35644;SDS011;21764;52.042;6.830;2023-04-03T07:04:30;6.95;;;2.38;;
35644;SDS011;21764;52.042;6.830;2023-04-03T07:09:31;9.90;;;2.67;;
35644;SDS011;21764;52.042;6.830;2023-04-03T07:14:32;6.93;;;2.70;;
35644;SDS011;21764;52.042;6.830;2023-04-03T07:19:33;6.90;;;2.45;;
35644;SDS011;21764;52.042;6.830;2023-04-03T07:24:34;7.15;;;3.50;;
35644;SDS011;21764;52.042;6.830;2023-04-03T07:29:35;7.82;;;2.95;;
35644;SDS011;21764;52.042;6.830;2023-04-03T07:34:35;3.28;;;2.00;;
35644;SDS011;21764;52.042;6.830;2023-04-03T07:39:36;3.70;;;2.03;;
35644;SDS011;21764;52.042;6.830;2023-04-03T07:44:37;5.68;;;2.50;;
35644;SDS011;21764;52.042;6.830;2023-04-03T07:49:38;6.47;;;2.33;;
35644;SDS011;21764;52.042;6.830;2023-04-03T07:54:40;5.95;;;2.20;;
35644;SDS011;21764;52.042;6.830;2023-04-03T07:59:41;8.10;;;2.45;;
35644;SDS011;21764;52.042;6.830;2023-04-03T08:04:42;5.53;;;2.20;;
35644;SDS011;21764;52.042;6.830;2023-04-03T08:09:43;4.78;;;2.13;;
35644;SDS011;21764;52.042;6.830;2023-04-03T08:14:44;6.22;;;2.50;;
35644;SDS011;21764;52.042;6.830;2023-04-03T08:19:45;2.63;;;1.80;;
35644;SDS011;21764;52.042;6.830;2023-04-03T08:24:46;3.45;;;2.05;;
35644;SDS011;21764;52.042;6.830;2023-04-03T08:29:47;6.03;;;2.50;;
35644;SDS011;21764;52.042;6.830;2023-04-03T08:34:47;6.28;;;2.13;;
35644;SDS011;21764;52.042;6.830;2023-04-03T08:39:48;4.40;;;1.90;;
35644;SDS011;21764;52.042;6.830;2023-04-03T08:44:55;4.18;;;2.15;;
35644;SDS011;21764;52.042;6.830;2023-04-03T08:50:06;3.22;;;2.00;;
35644;SDS011;21764;52.042;6.830;2023-04-03T08:55:29;6.38;;;2.20;;
35644;SDS011;21764;52.042;6.830;2023-04-03T09:00:47;2.28;;;1.83;;
35644;SDS011;21764;52.042;6.830;2023-04-03T09:06:06;7.10;;;2.03;;
35644;SDS011;21764;52.042;6.830;2023-04-03T09:11:36;2.88;;;2.30;;
35644;SDS011;21764;52.042;6.830;2023-04-03T09:16:59;4.10;;;2.15;;
35644;SDS011;21764;52.042;6.830;2023-04-03T09:22:24;4.05;;;2.20;;
35644;SDS011;21764;52.042;6.830;2023-04-03T09:27:25;4.78;;;2.17;;
35644;SDS011;21764;52.042;6.830;2023-04-03T09:32:30;3.05;;;1.60;;
35644;SDS011;21764;52.042;6.830;2023-04-03T09:37:34;6.05;;;2.35;;
35644;SDS011;21764;52.042;6.830;2023-04-03T09:42:36;2.70;;;1.58;;
35644;SDS011;21764;52.042;6.830;2023-04-03T09:47:40;3.33;;;1.58;;
35644;SDS011;21764;52.042;6.830;2023-04-03T09:52:42;1.42;;;1.33;;
35644;SDS011;21764;52.042;6.830;2023-04-03T09:57:45;2.65;;;1.35;;
35644;SDS011;21764;52.042;6.830;2023-04-03T10:02:46;3.10;;;1.33;;
35644;SDS011;21764;52.042;6.830;2023-04-03T10:07:51;3.55;;;1.40;;
35644;SDS011;21764;52.042;6.830;2023-04-03T10:13:10;3.95;;;1.73;;
35644;SDS011;21764;52.042;6.830;2023-04-03T10:23:27;6.00;;;1.80;;
35644;SDS011;21764;52.042;6.830;2023-04-03T10:39:54;7.00;;;2.78;;
35644;SDS011;21764;52.042;6.830;2023-04-03T10:56:16;1.27;;;0.88;;
35644;SDS011;21764;52.042;6.830;2023-04-03T11:01:36;4.20;;;1.40;;
35644;SDS011;21764;52.042;6.830;2023-04-03T11:06:48;3.47;;;1.33;;
35644;SDS011;21764;52.042;6.830;2023-04-03T11:12:04;4.30;;;1.38;;
35644;SDS011;21764;52.042;6.830;2023-04-03T11:22:29;3.70;;;1.70;;
35644;SDS011;21764;52.042;6.830;2023-04-03T11:27:57;1.80;;;0.98;;
35644;SDS011;21764;52.042;6.830;2023-04-03T11:38:27;2.20;;;1.20;;
35644;SDS011;21764;52.042;6.830;2023-04-03T11:43:55;2.53;;;1.33;;
35644;SDS011;21764;52.042;6.830;2023-04-03T11:54:53;3.28;;;1.38;;
35644;SDS011;21764;52.042;6.830;2023-04-03T11:59:54;5.22;;;1.60;;
35644;SDS011;21764;52.042;6.830;2023-04-03T12:10:27;3.13;;;1.65;;
35644;SDS011;21764;52.042;6.830;2023-04-03T12:21:01;2.75;;;1.35;;
35644;SDS011;21764;52.042;6.830;2023-04-03T12:26:04;3.80;;;1.50;;
35644;SDS011;21764;52.042;6.830;2023-04-03T12:31:19;2.20;;;1.50;;
35644;SDS011;21764;52.042;6.830;2023-04-03T12:36:35;6.38;;;2.15;;
35644;SDS011;21764;52.042;6.830;2023-04-03T12:41:55;3.90;;;1.57;;
35644;SDS011;21764;52.042;6.830;2023-04-03T12:47:23;4.18;;;1.52;;
35644;SDS011;21764;52.042;6.830;2023-04-03T12:52:34;4.18;;;1.02;;
35644;SDS011;21764;52.042;6.830;2023-04-03T12:57:39;3.75;;;1.40;;
35644;SDS011;21764;52.042;6.830;2023-04-03T13:02:40;4.85;;;1.88;;
35644;SDS011;21764;52.042;6.830;2023-04-03T13:07:58;6.00;;;1.42;;
35644;SDS011;21764;52.042;6.830;2023-04-03T13:13:07;3.10;;;1.52;;
35644;SDS011;21764;52.042;6.830;2023-04-03T13:23:29;2.17;;;1.23;;
35644;SDS011;21764;52.042;6.830;2023-04-03T13:28:31;5.78;;;1.50;;
35644;SDS011;21764;52.042;6.830;2023-04-03T13:33:34;12.07;;;2.50;;
35644;SDS011;21764;52.042;6.830;2023-04-03T13:38:37;6.25;;;2.15;;
35644;SDS011;21764;52.042;6.830;2023-04-03T13:43:38;6.70;;;2.28;;
35644;SDS011;21764;52.042;6.830;2023-04-03T13:48:49;8.70;;;2.00;;
35644;SDS011;21764;52.042;6.830;2023-04-03T13:54:00;6.90;;;2.00;;
35644;SDS011;21764;52.042;6.830;2023-04-03T14:04:27;5.60;;;2.00;;
35644;SDS011;21764;52.042;6.830;2023-04-03T14:09:32;5.72;;;1.50;;
35644;SDS011;21764;52.042;6.830;2023-04-03T14:14:34;7.03;;;1.75;;
35644;SDS011;21764;52.042;6.830;2023-04-03T14:19:38;4.65;;;1.60;;
35644;SDS011;21764;52.042;6.830;2023-04-03T14:24:39;6.30;;;1.45;;
35644;SDS011;21764;52.042;6.830;2023-04-03T14:29:40;5.85;;;1.85;;
35644;SDS011;21764;52.042;6.830;2023-04-03T14:34:41;8.32;;;2.00;;
35644;SDS011;21764;52.042;6.830;2023-04-03T14:39:43;3.15;;;1.85;;
35644;SDS011;21764;52.042;6.830;2023-04-03T14:44:45;7.32;;;2.20;;
35644;SDS011;21764;52.042;6.830;2023-04-03T14:49:46;9.32;;;1.35;;
35644;SDS011;21764;52.042;6.830;2023-04-03T14:54:47;4.72;;;1.50;;
35644;SDS011;21764;52.042;6.830;2023-04-03T14:59:49;3.33;;;1.50;;
35644;SDS011;21764;52.042;6.830;2023-04-03T15:04:50;4.97;;;1.92;;
35644;SDS011;21764;52.042;6.830;2023-04-03T15:09:50;7.25;;;1.73;;
35644;SDS011;21764;52.042;6.830;2023-04-03T15:14:51;7.47;;;2.00;;
35644;SDS011;21764;52.042;6.830;2023-04-03T15:19:52;4.82;;;1.85;;
35644;SDS011;21764;52.042;6.830;2023-04-03T15:24:53;4.32;;;2.10;;
35644;SDS011;21764;52.042;6.830;2023-04-03T15:29:53;5.18;;;1.63;;
35644;SDS011;21764;52.042;6.830;2023-04-03T15:34:54;6.32;;;2.08;;
35644;SDS011;21764;52.042;6.830;2023-04-03T15:39:55;3.15;;;1.75;;
35644;SDS011;21764;52.042;6.830;2023-04-03T15:44:56;6.00;;;1.70;;
35644;SDS011;21764;52.042;6.830;2023-04-03T15:49:56;7.25;;;2.22;;
35644;SDS011;21764;52.042;6.830;2023-04-03T15:54:57;6.18;;;1.85;;
35644;SDS011;21764;52.042;6.830;2023-04-03T15:59:58;3.35;;;1.05;;
35644;SDS011;21764;52.042;6.830;2023-04-03T16:04:59;4.13;;;1.52;;
35644;SDS011;21764;52.042;6.830;2023-04-03T16:10:00;10.13;;;2.60;;
35644;SDS011;21764;52.042;6.830;2023-04-03T16:15:01;5.38;;;2.08;;
35644;SDS011;21764;52.042;6.830;2023-04-03T16:20:03;4.43;;;1.20;;
35644;SDS011;21764;52.042;6.830;2023-04-03T16:25:06;2.65;;;1.00;;
35644;SDS011;21764;52.042;6.830;2023-04-03T16:30:08;5.68;;;1.60;;
35644;SDS011;21764;52.042;6.830;2023-04-03T16:35:09;5.72;;;1.83;;
35644;SDS011;21764;52.042;6.830;2023-04-03T16:40:10;5.10;;;1.38;;
35644;SDS011;21764;52.042;6.830;2023-04-03T16:45:12;7.15;;;2.10;;
35644;SDS011;21764;52.042;6.830;2023-04-03T16:50:13;7.22;;;1.85;;
35644;SDS011;21764;52.042;6.830;2023-04-03T16:55:13;5.00;;;1.70;;
35644;SDS011;21764;52.042;6.830;2023-04-03T17:00:14;5.57;;;1.70;;
35644;SDS011;21764;52.042;6.830;2023-04-03T17:05:15;3.40;;;1.27;;
35644;SDS011;21764;52.042;6.830;2023-04-03T17:10:16;4.28;;;1.58;;
35644;SDS011;21764;52.042;6.830;2023-04-03T17:15:17;7.90;;;2.05;;
35644;SDS011;21764;52.042;6.830;2023-04-03T17:20:19;2.90;;;1.40;;
35644;SDS011;21764;52.042;6.830;2023-04-03T17:25:21;11.63;;;1.95;;
35644;SDS011;21764;52.042;6.830;2023-04-03T17:30:21;3.25;;;1.60;;
35644;SDS011;21764;52.042;6.830;2023-04-03T17:35:23;6.93;;;2.38;;
35644;SDS011;21764;52.042;6.830;2023-04-03T17:40:24;5.35;;;2.20;;
35644;SDS011;21764;52.042;6.830;2023-04-03T17:45:27;5.25;;;2.60;;
35644;SDS011;21764;52.042;6.830;2023-04-03T17:56:25;11.27;;;3.08;;
35644;SDS011;21764;52.042;6.830;2023-04-03T18:01:29;2.90;;;1.58;;
35644;SDS011;21764;52.042;6.830;2023-04-03T18:06:41;10.73;;;2.70;;
35644;SDS011;21764;52.042;6.830;2023-04-03T18:11:45;7.65;;;2.70;;
35644;SDS011;21764;52.042;6.830;2023-04-03T18:16:47;4.80;;;2.22;;
35644;SDS011;21764;52.042;6.830;2023-04-03T18:21:47;7.60;;;2.70;;
35644;SDS011;21764;52.042;6.830;2023-04-03T18:26:50;9.48;;;3.15;;
35644;SDS011;21764;52.042;6.830;2023-04-03T18:31:57;8.57;;;4.13;;
35644;SDS011;21764;52.042;6.830;2023-04-03T18:37:03;12.00;;;5.35;;
35644;SDS011;21764;52.042;6.830;2023-04-03T18:42:14;9.63;;;5.40;;
35644;SDS011;21764;52.042;6.830;2023-04-03T18:47:17;11.55;;;5.10;;
35644;SDS011;21764;52.042;6.830;2023-04-03T18:52:18;10.30;;;5.78;;
35644;SDS011;21764;52.042;6.830;2023-04-03T18:57:19;16.52;;;7.15;;
35644;SDS011;21764;52.042;6.830;2023-04-03T19:02:20;13.90;;;5.10;;
35644;SDS011;21764;52.042;6.830;2023-04-03T19:07:23;11.80;;;3.30;;
35644;SDS011;21764;52.042;6.830;2023-04-03T19:12:24;7.78;;;2.83;;
35644;SDS011;21764;52.042;6.830;2023-04-03T19:17:25;19.85;;;7.20;;
35644;SDS011;21764;52.042;6.830;2023-04-03T19:22:27;15.05;;;5.85;;
35644;SDS011;21764;52.042;6.830;2023-04-03T19:27:29;11.07;;;3.40;;
35644;SDS011;21764;52.042;6.830;2023-04-03T19:32:30;15.65;;;7.13;;
35644;SDS011;21764;52.042;6.830;2023-04-03T19:37:30;11.48;;;7.88;;
35644;SDS011;21764;52.042;6.830;2023-04-03T19:42:31;14.10;;;7.47;;
35644;SDS011;21764;52.042;6.830;2023-04-03T19:47:35;13.20;;;8.20;;
35644;SDS011;21764;52.042;6.830;2023-04-03T19:52:36;7.82;;;4.90;;
35644;SDS011;21764;52.042;6.830;2023-04-03T19:57:37;21.80;;;9.10;;
35644;SDS011;21764;52.042;6.830;2023-04-03T20:02:38;11.32;;;5.25;;
35644;SDS011;21764;52.042;6.830;2023-04-03T20:07:39;13.30;;;7.47;;
35644;SDS011;21764;52.042;6.830;2023-04-03T20:12:40;12.85;;;4.72;;
35644;SDS011;21764;52.042;6.830;2023-04-03T20:17:41;8.18;;;4.55;;
35644;SDS011;21764;52.042;6.830;2023-04-03T20:22:42;9.35;;;4.55;;
35644;SDS011;21764;52.042;6.830;2023-04-03T20:27:43;11.20;;;4.25;;
35644;SDS011;21764;52.042;6.830;2023-04-03T20:32:44;13.43;;;5.10;;
35644;SDS011;21764;52.042;6.830;2023-04-03T20:37:45;11.75;;;5.68;;
35644;SDS011;21764;52.042;6.830;2023-04-03T20:42:45;14.65;;;4.72;;
35644;SDS011;21764;52.042;6.830;2023-04-03T20:47:47;10.45;;;5.28;;
35644;SDS011;21764;52.042;6.830;2023-04-03T20:52:49;12.20;;;4.78;;
35644;SDS011;21764;52.042;6.830;2023-04-03T20:57:50;7.03;;;3.83;;
35644;SDS011;21764;52.042;6.830;2023-04-03T21:02:53;8.60;;;3.92;;
35644;SDS011;21764;52.042;6.830;2023-04-03T21:19:19;8.95;;;3.40;;
35644;SDS011;21764;52.042;6.830;2023-04-03T21:24:20;12.68;;;5.10;;
35644;SDS011;21764;52.042;6.830;2023-04-03T21:29:22;11.00;;;4.30;;
35644;SDS011;21764;52.042;6.830;2023-04-03T21:34:26;20.25;;;5.45;;
35644;SDS011;21764;52.042;6.830;2023-04-03T21:39:28;13.98;;;5.60;;
35644;SDS011;21764;52.042;6.830;2023-04-03T21:44:29;27.02;;;6.78;;
35644;SDS011;21764;52.042;6.830;2023-04-03T21:49:30;11.98;;;4.22;;
35644;SDS011;21764;52.042;6.830;2023-04-03T21:54:30;11.07;;;4.38;;
35644;SDS011;21764;52.042;6.830;2023-04-03T21:59:32;16.40;;;5.18;;
35644;SDS011;21764;52.042;6.830;2023-04-03T22:04:33;12.27;;;5.88;;
35644;SDS011;21764;52.042;6.830;2023-04-03T22:09:34;9.57;;;4.95;;
35644;SDS011;21764;52.042;6.830;2023-04-03T22:14:35;10.77;;;4.28;;
35644;SDS011;21764;52.042;6.830;2023-04-03T22:19:36;11.45;;;6.22;;
35644;SDS011;21764;52.042;6.830;2023-04-03T22:24:36;11.00;;;4.82;;
35644;SDS011;21764;52.042;6.830;2023-04-03T22:29:38;15.25;;;4.13;;
35644;SDS011;21764;52.042;6.830;2023-04-03T22:34:39;10.55;;;4.63;;
35644;SDS011;21764;52.042;6.830;2023-04-03T22:39:40;10.45;;;4.38;;
35644;SDS011;21764;52.042;6.830;2023-04-03T22:44:40;7.80;;;4.50;;
35644;SDS011;21764;52.042;6.830;2023-04-03T22:49:41;11.30;;;5.22;;
35644;SDS011;21764;52.042;6.830;2023-04-03T22:54:42;10.27;;;4.28;;
35644;SDS011;21764;52.042;6.830;2023-04-03T22:59:43;10.70;;;4.00;;
35644;SDS011;21764;52.042;6.830;2023-04-03T23:04:43;13.82;;;4.78;;
35644;SDS011;21764;52.042;6.830;2023-04-03T23:09:44;18.40;;;7.43;;
35644;SDS011;21764;52.042;6.830;2023-04-03T23:14:45;10.30;;;4.63;;
35644;SDS011;21764;52.042;6.830;2023-04-03T23:19:45;10.63;;;5.03;;
35644;SDS011;21764;52.042;6.830;2023-04-03T23:24:46;7.65;;;4.90;;
35644;SDS011;21764;52.042;6.830;2023-04-03T23:29:47;16.02;;;4.80;;
35644;SDS011;21764;52.042;6.830;2023-04-03T23:34:47;11.95;;;4.40;;
35644;SDS011;21764;52.042;6.830;2023-04-03T23:39:48;9.82;;;4.63;;
35644;SDS011;21764;52.042;6.830;2023-04-03T23:44:49;10.60;;;3.97;;
35644;SDS011;21764;52.042;6.830;2023-04-03T23:49:50;8.20;;;3.97;;
35644;SDS011;21764;52.042;6.830;2023-04-03T23:54:50;12.23;;;4.03;;
35644;SDS011;21764;52.042;6.830;2023-04-03T23:59:51;8.98;;;3.92;;
